sensor_id;sensor_type;location;lat;lon;timestamp;P1;durP1;ratioP1;P2;durP2;ratioP2
12151;SDS011;6139;51.274;7.128;2023-04-24T00:00:52;1.35;;;1.10;;
12151;SDS011;6139;51.274;7.128;2023-04-24T00:01:56;2.15;;;1.13;;
12151;SDS011;6139;51.274;7.128;2023-04-24T00:02:58;5.57;;;1.75;;
12151;SDS011;6139;51.274;7.128;2023-04-24T00:04:00;1.48;;;1.10;;
12151;SDS011;6139;51.274;7.128;2023-04-24T00:05:01;1.35;;;1.17;;
12151;SDS011;6139;51.274;7.128;2023-04-24T00:06:04;1.75;;;1.30;;
12151;SDS011;6139;51.274;7.128;2023-04-24T00:07:07;1.00;;;0.90;;
12151;SDS011;6139;51.274;7.128;2023-04-24T00:08:09;1.92;;;1.20;;
12151;SDS011;6139;51.274;7.128;2023-04-24T00:09:10;2.10;;;1.20;;
12151;SDS011;6139;51.274;7.128;2023-04-24T00:10:12;1.23;;;1.13;;
12151;SDS011;6139;51.274;7.128;2023-04-24T00:11:13;1.55;;;1.40;;
12151;SDS011;6139;51.274;7.128;2023-04-24T00:12:15;1.55;;;1.45;;
12151;SDS011;6139;51.274;7.128;2023-04-24T00:13:17;1.38;;;1.27;;
12151;SDS011;6139;51.274;7.128;2023-04-24T00:14:19;1.58;;;1.35;;
12151;SDS011;6139;51.274;7.128;2023-04-24T00:15:21;2.00;;;1.80;;
12151;SDS011;6139;51.274;7.128;2023-04-24T00:16:22;1.45;;;1.35;;
12151;SDS011;6139;51.274;7.128;2023-04-24T00:17:24;1.80;;;1.38;;
12151;SDS011;6139;51.274;7.128;2023-04-24T00:18:25;1.33;;;1.20;;
12151;SDS011;6139;51.274;7.128;2023-04-24T00:19:27;2.33;;;1.20;;
12151;SDS011;6139;51.274;7.128;2023-04-24T00:20:28;1.50;;;1.35;;
12151;SDS011;6139;51.274;7.128;2023-04-24T00:21:32;7.82;;;1.52;;
12151;SDS011;6139;51.274;7.128;2023-04-24T00:22:33;2.03;;;1.40;;
12151;SDS011;6139;51.274;7.128;2023-04-24T00:23:35;3.75;;;1.52;;
12151;SDS011;6139;51.274;7.128;2023-04-24T00:24:36;1.50;;;1.40;;
12151;SDS011;6139;51.274;7.128;2023-04-24T00:25:38;1.40;;;1.30;;
12151;SDS011;6139;51.274;7.128;2023-04-24T00:26:40;1.55;;;1.45;;
12151;SDS011;6139;51.274;7.128;2023-04-24T00:27:42;1.92;;;1.40;;
12151;SDS011;6139;51.274;7.128;2023-04-24T00:28:44;1.27;;;1.17;;
12151;SDS011;6139;51.274;7.128;2023-04-24T00:29:46;1.63;;;1.40;;
12151;SDS011;6139;51.274;7.128;2023-04-24T00:30:47;2.75;;;1.45;;
12151;SDS011;6139;51.274;7.128;2023-04-24T00:31:49;1.40;;;1.27;;
12151;SDS011;6139;51.274;7.128;2023-04-24T00:32:51;1.83;;;1.30;;
12151;SDS011;6139;51.274;7.128;2023-04-24T00:33:53;1.55;;;1.45;;
12151;SDS011;6139;51.274;7.128;2023-04-24T00:34:54;1.50;;;1.40;;
12151;SDS011;6139;51.274;7.128;2023-04-24T00:35:56;1.83;;;1.48;;
12151;SDS011;6139;51.274;7.128;2023-04-24T00:36:57;3.10;;;1.40;;
12151;SDS011;6139;51.274;7.128;2023-04-24T00:37:58;1.88;;;1.30;;
12151;SDS011;6139;51.274;7.128;2023-04-24T00:39:00;1.65;;;1.30;;
12151;SDS011;6139;51.274;7.128;2023-04-24T00:40:02;1.67;;;1.40;;
12151;SDS011;6139;51.274;7.128;2023-04-24T00:41:04;1.53;;;1.30;;
12151;SDS011;6139;51.274;7.128;2023-04-24T00:42:06;1.60;;;1.40;;
12151;SDS011;6139;51.274;7.128;2023-04-24T00:43:07;1.83;;;1.50;;
12151;SDS011;6139;51.274;7.128;2023-04-24T00:44:11;2.58;;;1.55;;
12151;SDS011;6139;51.274;7.128;2023-04-24T00:45:12;3.47;;;1.80;;
12151;SDS011;6139;51.274;7.128;2023-04-24T00:46:14;1.67;;;1.50;;
12151;SDS011;6139;51.274;7.128;2023-04-24T00:47:17;2.03;;;1.50;;
12151;SDS011;6139;51.274;7.128;2023-04-24T00:48:22;1.92;;;1.50;;
12151;SDS011;6139;51.274;7.128;2023-04-24T00:49:24;1.50;;;1.40;;
12151;SDS011;6139;51.274;7.128;2023-04-24T00:50:26;2.85;;;1.60;;
12151;SDS011;6139;51.274;7.128;2023-04-24T00:51:27;1.70;;;1.42;;
12151;SDS011;6139;51.274;7.128;2023-04-24T00:52:31;2.85;;;1.55;;
12151;SDS011;6139;51.274;7.128;2023-04-24T00:53:32;1.27;;;1.17;;
12151;SDS011;6139;51.274;7.128;2023-04-24T00:54:34;2.58;;;1.55;;
12151;SDS011;6139;51.274;7.128;2023-04-24T00:55:35;1.55;;;1.45;;
12151;SDS011;6139;51.274;7.128;2023-04-24T00:56:38;1.67;;;1.40;;
12151;SDS011;6139;51.274;7.128;2023-04-24T00:57:40;2.78;;;1.40;;
12151;SDS011;6139;51.274;7.128;2023-04-24T00:58:43;1.85;;;1.35;;
12151;SDS011;6139;51.274;7.128;2023-04-24T00:59:46;1.85;;;1.52;;
12151;SDS011;6139;51.274;7.128;2023-04-24T01:00:48;2.17;;;1.58;;
12151;SDS011;6139;51.274;7.128;2023-04-24T01:01:50;1.55;;;1.42;;
12151;SDS011;6139;51.274;7.128;2023-04-24T01:02:53;1.60;;;1.50;;
12151;SDS011;6139;51.274;7.128;2023-04-24T01:03:54;2.92;;;1.33;;
12151;SDS011;6139;51.274;7.128;2023-04-24T01:04:58;2.53;;;1.60;;
12151;SDS011;6139;51.274;7.128;2023-04-24T01:06:00;2.30;;;1.48;;
12151;SDS011;6139;51.274;7.128;2023-04-24T01:07:03;2.33;;;1.55;;
12151;SDS011;6139;51.274;7.128;2023-04-24T01:08:10;3.13;;;1.58;;
12151;SDS011;6139;51.274;7.128;2023-04-24T01:09:12;2.05;;;1.70;;
12151;SDS011;6139;51.274;7.128;2023-04-24T01:10:14;2.47;;;1.90;;
12151;SDS011;6139;51.274;7.128;2023-04-24T01:11:19;1.95;;;1.52;;
12151;SDS011;6139;51.274;7.128;2023-04-24T01:12:21;3.50;;;1.63;;
12151;SDS011;6139;51.274;7.128;2023-04-24T01:13:24;2.65;;;1.85;;
12151;SDS011;6139;51.274;7.128;2023-04-24T01:14:25;2.10;;;1.90;;
12151;SDS011;6139;51.274;7.128;2023-04-24T01:15:28;2.20;;;2.00;;
12151;SDS011;6139;51.274;7.128;2023-04-24T01:16:29;1.95;;;1.83;;
12151;SDS011;6139;51.274;7.128;2023-04-24T01:17:31;2.15;;;1.92;;
12151;SDS011;6139;51.274;7.128;2023-04-24T01:18:32;2.20;;;2.00;;
12151;SDS011;6139;51.274;7.128;2023-04-24T01:19:34;2.30;;;1.80;;
12151;SDS011;6139;51.274;7.128;2023-04-24T01:20:38;2.10;;;1.88;;
12151;SDS011;6139;51.274;7.128;2023-04-24T01:21:42;1.98;;;1.77;;
12151;SDS011;6139;51.274;7.128;2023-04-24T01:22:45;1.70;;;1.60;;
12151;SDS011;6139;51.274;7.128;2023-04-24T01:23:49;2.05;;;1.80;;
12151;SDS011;6139;51.274;7.128;2023-04-24T01:24:52;2.00;;;1.80;;
12151;SDS011;6139;51.274;7.128;2023-04-24T01:25:54;1.70;;;1.60;;
12151;SDS011;6139;51.274;7.128;2023-04-24T01:26:55;2.47;;;1.90;;
12151;SDS011;6139;51.274;7.128;2023-04-24T01:27:58;1.80;;;1.70;;
12151;SDS011;6139;51.274;7.128;2023-04-24T01:28:59;2.22;;;1.80;;
12151;SDS011;6139;51.274;7.128;2023-04-24T01:30:01;2.22;;;1.88;;
12151;SDS011;6139;51.274;7.128;2023-04-24T01:31:05;2.25;;;2.05;;
12151;SDS011;6139;51.274;7.128;2023-04-24T01:32:07;2.00;;;1.80;;
12151;SDS011;6139;51.274;7.128;2023-04-24T01:33:09;2.40;;;1.80;;
12151;SDS011;6139;51.274;7.128;2023-04-24T01:36:10;2.80;;;2.08;;
12151;SDS011;6139;51.274;7.128;2023-04-24T01:37:12;1.90;;;1.73;;
12151;SDS011;6139;51.274;7.128;2023-04-24T01:38:14;1.90;;;1.65;;
12151;SDS011;6139;51.274;7.128;2023-04-24T01:39:16;4.53;;;2.15;;
12151;SDS011;6139;51.274;7.128;2023-04-24T01:40:18;3.08;;;2.10;;
12151;SDS011;6139;51.274;7.128;2023-04-24T01:41:20;3.28;;;1.77;;
12151;SDS011;6139;51.274;7.128;2023-04-24T01:42:21;3.90;;;2.07;;
12151;SDS011;6139;51.274;7.128;2023-04-24T01:43:24;3.28;;;2.22;;
12151;SDS011;6139;51.274;7.128;2023-04-24T01:44:25;2.28;;;2.08;;
12151;SDS011;6139;51.274;7.128;2023-04-24T01:45:27;2.58;;;2.10;;
12151;SDS011;6139;51.274;7.128;2023-04-24T01:46:28;1.80;;;1.65;;
12151;SDS011;6139;51.274;7.128;2023-04-24T01:47:31;2.38;;;1.90;;
12151;SDS011;6139;51.274;7.128;2023-04-24T01:48:32;3.03;;;2.42;;
12151;SDS011;6139;51.274;7.128;2023-04-24T01:49:35;3.13;;;1.85;;
12151;SDS011;6139;51.274;7.128;2023-04-24T01:50:39;4.47;;;2.05;;
12151;SDS011;6139;51.274;7.128;2023-04-24T01:51:41;3.00;;;2.40;;
12151;SDS011;6139;51.274;7.128;2023-04-24T01:52:42;3.78;;;2.55;;
12151;SDS011;6139;51.274;7.128;2023-04-24T01:53:45;3.42;;;2.42;;
12151;SDS011;6139;51.274;7.128;2023-04-24T01:54:46;3.63;;;2.72;;
12151;SDS011;6139;51.274;7.128;2023-04-24T01:55:48;4.55;;;2.30;;
12151;SDS011;6139;51.274;7.128;2023-04-24T01:56:49;5.60;;;3.22;;
12151;SDS011;6139;51.274;7.128;2023-04-24T01:57:51;3.70;;;2.78;;
12151;SDS011;6139;51.274;7.128;2023-04-24T01:58:55;4.35;;;3.22;;
12151;SDS011;6139;51.274;7.128;2023-04-24T01:59:58;3.13;;;2.67;;
12151;SDS011;6139;51.274;7.128;2023-04-24T02:00:59;4.07;;;3.10;;
12151;SDS011;6139;51.274;7.128;2023-04-24T02:02:01;3.72;;;2.90;;
12151;SDS011;6139;51.274;7.128;2023-04-24T02:03:02;4.78;;;3.17;;
12151;SDS011;6139;51.274;7.128;2023-04-24T02:04:05;2.92;;;2.65;;
12151;SDS011;6139;51.274;7.128;2023-04-24T02:05:08;4.30;;;2.95;;
12151;SDS011;6139;51.274;7.128;2023-04-24T02:06:11;4.22;;;3.28;;
12151;SDS011;6139;51.274;7.128;2023-04-24T02:07:12;4.07;;;3.33;;
12151;SDS011;6139;51.274;7.128;2023-04-24T02:08:14;4.07;;;3.13;;
12151;SDS011;6139;51.274;7.128;2023-04-24T02:09:16;4.60;;;3.33;;
12151;SDS011;6139;51.274;7.128;2023-04-24T02:10:18;3.42;;;3.13;;
12151;SDS011;6139;51.274;7.128;2023-04-24T02:11:19;5.60;;;3.20;;
12151;SDS011;6139;51.274;7.128;2023-04-24T02:12:21;3.55;;;3.25;;
12151;SDS011;6139;51.274;7.128;2023-04-24T02:13:22;4.57;;;3.63;;
12151;SDS011;6139;51.274;7.128;2023-04-24T02:14:24;3.58;;;3.28;;
12151;SDS011;6139;51.274;7.128;2023-04-24T02:15:25;3.88;;;3.25;;
12151;SDS011;6139;51.274;7.128;2023-04-24T02:16:27;3.90;;;3.35;;
12151;SDS011;6139;51.274;7.128;2023-04-24T02:17:33;6.03;;;3.83;;
12151;SDS011;6139;51.274;7.128;2023-04-24T02:18:35;5.40;;;3.38;;
12151;SDS011;6139;51.274;7.128;2023-04-24T02:19:36;5.15;;;3.63;;
12151;SDS011;6139;51.274;7.128;2023-04-24T02:20:38;5.72;;;3.88;;
12151;SDS011;6139;51.274;7.128;2023-04-24T02:21:39;6.63;;;4.05;;
12151;SDS011;6139;51.274;7.128;2023-04-24T02:22:42;6.28;;;4.10;;
12151;SDS011;6139;51.274;7.128;2023-04-24T02:23:43;4.15;;;3.40;;
12151;SDS011;6139;51.274;7.128;2023-04-24T02:24:48;4.03;;;3.63;;
12151;SDS011;6139;51.274;7.128;2023-04-24T02:25:49;5.53;;;4.32;;
12151;SDS011;6139;51.274;7.128;2023-04-24T02:26:53;5.70;;;4.57;;
12151;SDS011;6139;51.274;7.128;2023-04-24T02:27:54;6.05;;;4.70;;
12151;SDS011;6139;51.274;7.128;2023-04-24T02:28:57;5.40;;;4.40;;
12151;SDS011;6139;51.274;7.128;2023-04-24T02:29:57;6.55;;;5.85;;
12151;SDS011;6139;51.274;7.128;2023-04-24T02:31:00;5.90;;;5.30;;
12151;SDS011;6139;51.274;7.128;2023-04-24T02:32:00;6.68;;;5.50;;
12151;SDS011;6139;51.274;7.128;2023-04-24T02:33:02;8.02;;;5.10;;
12151;SDS011;6139;51.274;7.128;2023-04-24T02:34:04;6.82;;;5.07;;
12151;SDS011;6139;51.274;7.128;2023-04-24T02:35:06;6.35;;;5.35;;
12151;SDS011;6139;51.274;7.128;2023-04-24T02:36:08;6.88;;;6.13;;
12151;SDS011;6139;51.274;7.128;2023-04-24T02:37:10;6.68;;;5.95;;
12151;SDS011;6139;51.274;7.128;2023-04-24T02:38:10;8.88;;;6.20;;
12151;SDS011;6139;51.274;7.128;2023-04-24T02:39:12;5.57;;;5.03;;
12151;SDS011;6139;51.274;7.128;2023-04-24T02:40:15;5.93;;;5.37;;
12151;SDS011;6139;51.274;7.128;2023-04-24T02:41:17;7.43;;;6.00;;
12151;SDS011;6139;51.274;7.128;2023-04-24T02:42:18;8.45;;;6.18;;
12151;SDS011;6139;51.274;7.128;2023-04-24T02:43:21;7.05;;;6.35;;
12151;SDS011;6139;51.274;7.128;2023-04-24T02:44:21;6.93;;;6.20;;
12151;SDS011;6139;51.274;7.128;2023-04-24T02:45:24;8.18;;;6.10;;
12151;SDS011;6139;51.274;7.128;2023-04-24T02:46:25;7.95;;;6.00;;
12151;SDS011;6139;51.274;7.128;2023-04-24T02:47:27;7.13;;;6.10;;
12151;SDS011;6139;51.274;7.128;2023-04-24T02:48:28;6.88;;;6.20;;
12151;SDS011;6139;51.274;7.128;2023-04-24T02:49:30;6.80;;;6.20;;
12151;SDS011;6139;51.274;7.128;2023-04-24T02:50:31;7.28;;;6.10;;
12151;SDS011;6139;51.274;7.128;2023-04-24T02:51:33;7.53;;;6.55;;
12151;SDS011;6139;51.274;7.128;2023-04-24T02:52:35;7.90;;;6.55;;
12151;SDS011;6139;51.274;7.128;2023-04-24T02:53:36;8.05;;;6.95;;
12151;SDS011;6139;51.274;7.128;2023-04-24T02:54:37;7.65;;;6.38;;
12151;SDS011;6139;51.274;7.128;2023-04-24T02:55:41;7.18;;;6.47;;
12151;SDS011;6139;51.274;7.128;2023-04-24T02:56:42;7.40;;;6.70;;
12151;SDS011;6139;51.274;7.128;2023-04-24T02:57:44;8.85;;;6.40;;
12151;SDS011;6139;51.274;7.128;2023-04-24T02:58:45;7.88;;;6.97;;
12151;SDS011;6139;51.274;7.128;2023-04-24T02:59:46;10.55;;;6.70;;
12151;SDS011;6139;51.274;7.128;2023-04-24T03:00:47;9.00;;;6.87;;
12151;SDS011;6139;51.274;7.128;2023-04-24T03:01:49;8.40;;;6.77;;
12151;SDS011;6139;51.274;7.128;2023-04-24T03:02:50;7.10;;;6.40;;
12151;SDS011;6139;51.274;7.128;2023-04-24T03:03:53;9.82;;;7.05;;
12151;SDS011;6139;51.274;7.128;2023-04-24T03:04:54;9.13;;;6.28;;
12151;SDS011;6139;51.274;7.128;2023-04-24T03:05:57;8.27;;;6.47;;
12151;SDS011;6139;51.274;7.128;2023-04-24T03:06:58;8.43;;;6.70;;
12151;SDS011;6139;51.274;7.128;2023-04-24T03:08:01;9.48;;;6.65;;
12151;SDS011;6139;51.274;7.128;2023-04-24T03:09:02;7.18;;;6.38;;
12151;SDS011;6139;51.274;7.128;2023-04-24T03:10:06;7.25;;;6.55;;
12151;SDS011;6139;51.274;7.128;2023-04-24T03:11:09;7.70;;;6.77;;
12151;SDS011;6139;51.274;7.128;2023-04-24T03:12:11;7.18;;;6.07;;
12151;SDS011;6139;51.274;7.128;2023-04-24T03:13:13;8.18;;;7.20;;
12151;SDS011;6139;51.274;7.128;2023-04-24T03:14:16;7.80;;;7.00;;
12151;SDS011;6139;51.274;7.128;2023-04-24T03:15:17;9.57;;;7.05;;
12151;SDS011;6139;51.274;7.128;2023-04-24T03:16:19;7.43;;;6.68;;
12151;SDS011;6139;51.274;7.128;2023-04-24T03:17:20;9.57;;;7.00;;
12151;SDS011;6139;51.274;7.128;2023-04-24T03:18:22;8.63;;;6.78;;
12151;SDS011;6139;51.274;7.128;2023-04-24T03:19:25;11.93;;;7.45;;
12151;SDS011;6139;51.274;7.128;2023-04-24T03:20:34;9.77;;;7.63;;
12151;SDS011;6139;51.274;7.128;2023-04-24T03:21:37;8.68;;;7.38;;
12151;SDS011;6139;51.274;7.128;2023-04-24T03:22:40;9.73;;;7.57;;
12151;SDS011;6139;51.274;7.128;2023-04-24T03:23:42;9.00;;;7.60;;
12151;SDS011;6139;51.274;7.128;2023-04-24T03:24:44;8.80;;;7.38;;
12151;SDS011;6139;51.274;7.128;2023-04-24T03:25:48;9.55;;;8.10;;
12151;SDS011;6139;51.274;7.128;2023-04-24T03:26:54;11.05;;;7.47;;
12151;SDS011;6139;51.274;7.128;2023-04-24T03:28:19;12.07;;;7.95;;
12151;SDS011;6139;51.274;7.128;2023-04-24T03:29:30;11.80;;;8.48;;
12151;SDS011;6139;51.274;7.128;2023-04-24T03:30:31;10.15;;;7.55;;
12151;SDS011;6139;51.274;7.128;2023-04-24T03:31:34;9.30;;;7.65;;
12151;SDS011;6139;51.274;7.128;2023-04-24T03:32:35;9.85;;;8.20;;
12151;SDS011;6139;51.274;7.128;2023-04-24T03:33:39;12.70;;;9.05;;
12151;SDS011;6139;51.274;7.128;2023-04-24T03:34:41;12.45;;;8.75;;
12151;SDS011;6139;51.274;7.128;2023-04-24T03:35:46;9.87;;;8.37;;
12151;SDS011;6139;51.274;7.128;2023-04-24T03:36:47;9.57;;;8.57;;
12151;SDS011;6139;51.274;7.128;2023-04-24T03:37:49;9.55;;;8.55;;
12151;SDS011;6139;51.274;7.128;2023-04-24T03:39:28;11.70;;;8.32;;
12151;SDS011;6139;51.274;7.128;2023-04-24T03:40:30;9.75;;;8.52;;
12151;SDS011;6139;51.274;7.128;2023-04-24T03:41:33;10.30;;;8.63;;
12151;SDS011;6139;51.274;7.128;2023-04-24T03:42:43;11.57;;;8.52;;
12151;SDS011;6139;51.274;7.128;2023-04-24T03:43:45;12.07;;;8.73;;
12151;SDS011;6139;51.274;7.128;2023-04-24T03:44:47;11.23;;;8.57;;
12151;SDS011;6139;51.274;7.128;2023-04-24T03:45:48;11.05;;;8.20;;
12151;SDS011;6139;51.274;7.128;2023-04-24T03:46:52;11.70;;;8.33;;
12151;SDS011;6139;51.274;7.128;2023-04-24T03:47:55;14.23;;;9.60;;
12151;SDS011;6139;51.274;7.128;2023-04-24T03:48:57;10.98;;;8.40;;
12151;SDS011;6139;51.274;7.128;2023-04-24T03:50:02;11.00;;;8.40;;
12151;SDS011;6139;51.274;7.128;2023-04-24T03:51:06;8.90;;;8.00;;
12151;SDS011;6139;51.274;7.128;2023-04-24T03:52:08;10.80;;;8.70;;
12151;SDS011;6139;51.274;7.128;2023-04-24T03:53:10;10.30;;;8.73;;
12151;SDS011;6139;51.274;7.128;2023-04-24T03:54:14;10.40;;;7.53;;
12151;SDS011;6139;51.274;7.128;2023-04-24T03:55:16;9.20;;;7.78;;
12151;SDS011;6139;51.274;7.128;2023-04-24T03:56:20;11.50;;;7.65;;
12151;SDS011;6139;51.274;7.128;2023-04-24T03:57:22;12.90;;;8.98;;
12151;SDS011;6139;51.274;7.128;2023-04-24T03:58:37;8.73;;;7.82;;
12151;SDS011;6139;51.274;7.128;2023-04-24T03:59:39;12.35;;;7.82;;
12151;SDS011;6139;51.274;7.128;2023-04-24T04:00:46;9.90;;;7.03;;
12151;SDS011;6139;51.274;7.128;2023-04-24T04:02:26;9.17;;;8.00;;
12151;SDS011;6139;51.274;7.128;2023-04-24T04:03:28;10.05;;;8.25;;
12151;SDS011;6139;51.274;7.128;2023-04-24T04:04:29;10.25;;;7.40;;
12151;SDS011;6139;51.274;7.128;2023-04-24T04:05:31;10.90;;;8.13;;
12151;SDS011;6139;51.274;7.128;2023-04-24T04:06:32;8.63;;;7.55;;
12151;SDS011;6139;51.274;7.128;2023-04-24T04:07:35;10.43;;;8.52;;
12151;SDS011;6139;51.274;7.128;2023-04-24T04:08:36;8.93;;;7.47;;
12151;SDS011;6139;51.274;7.128;2023-04-24T04:09:38;10.45;;;8.52;;
12151;SDS011;6139;51.274;7.128;2023-04-24T04:10:39;9.50;;;7.77;;
12151;SDS011;6139;51.274;7.128;2023-04-24T04:11:41;12.47;;;8.37;;
12151;SDS011;6139;51.274;7.128;2023-04-24T04:12:42;9.23;;;8.33;;
12151;SDS011;6139;51.274;7.128;2023-04-24T04:13:46;10.53;;;8.57;;
12151;SDS011;6139;51.274;7.128;2023-04-24T04:14:49;8.93;;;8.07;;
12151;SDS011;6139;51.274;7.128;2023-04-24T04:15:52;11.45;;;8.70;;
12151;SDS011;6139;51.274;7.128;2023-04-24T04:16:53;9.20;;;7.78;;
12151;SDS011;6139;51.274;7.128;2023-04-24T04:17:55;9.87;;;7.90;;
12151;SDS011;6139;51.274;7.128;2023-04-24T04:18:56;9.05;;;7.72;;
12151;SDS011;6139;51.274;7.128;2023-04-24T04:19:59;9.57;;;8.20;;
12151;SDS011;6139;51.274;7.128;2023-04-24T04:21:00;10.20;;;7.47;;
12151;SDS011;6139;51.274;7.128;2023-04-24T04:22:02;11.43;;;8.52;;
12151;SDS011;6139;51.274;7.128;2023-04-24T04:23:14;11.03;;;8.10;;
12151;SDS011;6139;51.274;7.128;2023-04-24T04:24:32;10.47;;;8.27;;
12151;SDS011;6139;51.274;7.128;2023-04-24T04:25:33;10.68;;;8.30;;
12151;SDS011;6139;51.274;7.128;2023-04-24T04:26:35;12.75;;;9.13;;
12151;SDS011;6139;51.274;7.128;2023-04-24T04:27:42;9.98;;;8.95;;
12151;SDS011;6139;51.274;7.128;2023-04-24T04:28:48;10.48;;;9.07;;
12151;SDS011;6139;51.274;7.128;2023-04-24T04:29:49;11.43;;;8.63;;
12151;SDS011;6139;51.274;7.128;2023-04-24T04:30:51;12.30;;;9.23;;
12151;SDS011;6139;51.274;7.128;2023-04-24T04:31:54;10.75;;;9.00;;
12151;SDS011;6139;51.274;7.128;2023-04-24T04:32:56;13.25;;;8.93;;
12151;SDS011;6139;51.274;7.128;2023-04-24T04:33:57;12.25;;;9.77;;
12151;SDS011;6139;51.274;7.128;2023-04-24T04:34:59;14.45;;;9.30;;
12151;SDS011;6139;51.274;7.128;2023-04-24T04:36:04;12.98;;;9.77;;
12151;SDS011;6139;51.274;7.128;2023-04-24T04:37:07;13.75;;;9.18;;
12151;SDS011;6139;51.274;7.128;2023-04-24T04:38:32;14.63;;;9.80;;
12151;SDS011;6139;51.274;7.128;2023-04-24T04:39:41;12.20;;;9.32;;
12151;SDS011;6139;51.274;7.128;2023-04-24T04:40:46;13.30;;;9.73;;
12151;SDS011;6139;51.274;7.128;2023-04-24T04:41:50;11.15;;;9.77;;
12151;SDS011;6139;51.274;7.128;2023-04-24T04:42:53;12.80;;;9.27;;
12151;SDS011;6139;51.274;7.128;2023-04-24T04:43:58;11.88;;;8.80;;
12151;SDS011;6139;51.274;7.128;2023-04-24T04:44:59;12.32;;;9.25;;
12151;SDS011;6139;51.274;7.128;2023-04-24T04:46:11;12.02;;;9.73;;
12151;SDS011;6139;51.274;7.128;2023-04-24T04:47:21;11.73;;;8.73;;
12151;SDS011;6139;51.274;7.128;2023-04-24T04:48:24;16.42;;;9.45;;
12151;SDS011;6139;51.274;7.128;2023-04-24T04:49:26;13.32;;;9.52;;
12151;SDS011;6139;51.274;7.128;2023-04-24T04:50:29;10.15;;;8.70;;
12151;SDS011;6139;51.274;7.128;2023-04-24T04:51:36;10.50;;;9.07;;
12151;SDS011;6139;51.274;7.128;2023-04-24T04:52:38;12.93;;;9.43;;
12151;SDS011;6139;51.274;7.128;2023-04-24T04:53:51;13.90;;;8.73;;
12151;SDS011;6139;51.274;7.128;2023-04-24T04:54:52;9.87;;;8.57;;
12151;SDS011;6139;51.274;7.128;2023-04-24T04:55:56;14.07;;;9.50;;
12151;SDS011;6139;51.274;7.128;2023-04-24T04:57:01;10.25;;;8.38;;
12151;SDS011;6139;51.274;7.128;2023-04-24T04:58:03;10.07;;;8.82;;
12151;SDS011;6139;51.274;7.128;2023-04-24T04:59:06;11.38;;;8.82;;
12151;SDS011;6139;51.274;7.128;2023-04-24T05:00:10;11.40;;;8.60;;
12151;SDS011;6139;51.274;7.128;2023-04-24T05:01:20;11.53;;;9.13;;
12151;SDS011;6139;51.274;7.128;2023-04-24T05:02:23;11.67;;;9.03;;
12151;SDS011;6139;51.274;7.128;2023-04-24T05:03:24;11.27;;;8.68;;
12151;SDS011;6139;51.274;7.128;2023-04-24T05:04:32;14.02;;;8.90;;
12151;SDS011;6139;51.274;7.128;2023-04-24T05:05:33;11.88;;;8.45;;
12151;SDS011;6139;51.274;7.128;2023-04-24T05:06:35;10.93;;;8.93;;
12151;SDS011;6139;51.274;7.128;2023-04-24T05:07:36;10.88;;;8.60;;
12151;SDS011;6139;51.274;7.128;2023-04-24T05:08:38;9.30;;;8.02;;
12151;SDS011;6139;51.274;7.128;2023-04-24T05:09:43;15.05;;;9.02;;
12151;SDS011;6139;51.274;7.128;2023-04-24T05:10:47;10.48;;;8.60;;
12151;SDS011;6139;51.274;7.128;2023-04-24T05:11:48;11.40;;;8.27;;
12151;SDS011;6139;51.274;7.128;2023-04-24T05:12:50;11.98;;;8.77;;
12151;SDS011;6139;51.274;7.128;2023-04-24T05:13:52;11.95;;;8.43;;
12151;SDS011;6139;51.274;7.128;2023-04-24T05:15:03;11.02;;;7.95;;
12151;SDS011;6139;51.274;7.128;2023-04-24T05:16:04;10.70;;;8.23;;
12151;SDS011;6139;51.274;7.128;2023-04-24T05:17:06;10.63;;;8.53;;
12151;SDS011;6139;51.274;7.128;2023-04-24T05:18:07;9.70;;;7.75;;
12151;SDS011;6139;51.274;7.128;2023-04-24T05:19:09;10.57;;;7.63;;
12151;SDS011;6139;51.274;7.128;2023-04-24T05:20:14;10.50;;;8.07;;
12151;SDS011;6139;51.274;7.128;2023-04-24T05:21:17;9.33;;;8.20;;
12151;SDS011;6139;51.274;7.128;2023-04-24T05:22:21;9.00;;;8.00;;
12151;SDS011;6139;51.274;7.128;2023-04-24T05:23:25;10.50;;;8.20;;
12151;SDS011;6139;51.274;7.128;2023-04-24T05:24:28;9.37;;;8.47;;
12151;SDS011;6139;51.274;7.128;2023-04-24T05:25:54;10.13;;;8.40;;
12151;SDS011;6139;51.274;7.128;2023-04-24T05:26:56;10.73;;;8.32;;
12151;SDS011;6139;51.274;7.128;2023-04-24T05:28:03;10.00;;;9.00;;
12151;SDS011;6139;51.274;7.128;2023-04-24T05:29:06;11.27;;;9.27;;
12151;SDS011;6139;51.274;7.128;2023-04-24T05:30:10;14.50;;;9.23;;
12151;SDS011;6139;51.274;7.128;2023-04-24T05:31:13;11.18;;;8.00;;
12151;SDS011;6139;51.274;7.128;2023-04-24T05:32:15;12.20;;;8.88;;
12151;SDS011;6139;51.274;7.128;2023-04-24T05:33:18;12.32;;;9.15;;
12151;SDS011;6139;51.274;7.128;2023-04-24T05:34:19;10.50;;;8.88;;
12151;SDS011;6139;51.274;7.128;2023-04-24T05:35:26;11.63;;;9.20;;
12151;SDS011;6139;51.274;7.128;2023-04-24T05:36:27;9.80;;;8.83;;
12151;SDS011;6139;51.274;7.128;2023-04-24T05:37:29;10.93;;;8.93;;
12151;SDS011;6139;51.274;7.128;2023-04-24T05:38:30;10.98;;;8.55;;
12151;SDS011;6139;51.274;7.128;2023-04-24T05:39:32;9.40;;;8.48;;
12151;SDS011;6139;51.274;7.128;2023-04-24T05:40:34;9.68;;;8.48;;
12151;SDS011;6139;51.274;7.128;2023-04-24T05:41:35;11.10;;;8.57;;
12151;SDS011;6139;51.274;7.128;2023-04-24T05:42:36;9.43;;;7.97;;
12151;SDS011;6139;51.274;7.128;2023-04-24T05:43:38;11.70;;;9.03;;
12151;SDS011;6139;51.274;7.128;2023-04-24T05:44:39;11.80;;;8.65;;
12151;SDS011;6139;51.274;7.128;2023-04-24T05:45:43;8.75;;;7.80;;
12151;SDS011;6139;51.274;7.128;2023-04-24T05:46:44;9.05;;;8.10;;
12151;SDS011;6139;51.274;7.128;2023-04-24T05:47:46;8.87;;;7.97;;
12151;SDS011;6139;51.274;7.128;2023-04-24T05:48:47;11.23;;;8.37;;
12151;SDS011;6139;51.274;7.128;2023-04-24T05:49:49;9.05;;;7.90;;
12151;SDS011;6139;51.274;7.128;2023-04-24T05:50:50;10.93;;;7.87;;
12151;SDS011;6139;51.274;7.128;2023-04-24T05:51:52;11.47;;;8.37;;
12151;SDS011;6139;51.274;7.128;2023-04-24T05:52:53;9.18;;;7.60;;
12151;SDS011;6139;51.274;7.128;2023-04-24T05:53:59;9.43;;;8.07;;
12151;SDS011;6139;51.274;7.128;2023-04-24T05:55:01;8.10;;;7.30;;
12151;SDS011;6139;51.274;7.128;2023-04-24T05:56:09;9.20;;;8.10;;
12151;SDS011;6139;51.274;7.128;2023-04-24T05:57:11;7.70;;;6.90;;
12151;SDS011;6139;51.274;7.128;2023-04-24T05:58:25;10.00;;;7.33;;
12151;SDS011;6139;51.274;7.128;2023-04-24T05:59:28;9.13;;;7.80;;
12151;SDS011;6139;51.274;7.128;2023-04-24T06:00:29;8.55;;;7.72;;
12151;SDS011;6139;51.274;7.128;2023-04-24T06:01:40;9.13;;;7.53;;
12151;SDS011;6139;51.274;7.128;2023-04-24T06:02:48;8.27;;;7.45;;
12151;SDS011;6139;51.274;7.128;2023-04-24T06:03:49;9.20;;;8.05;;
12151;SDS011;6139;51.274;7.128;2023-04-24T06:04:53;8.57;;;7.68;;
12151;SDS011;6139;51.274;7.128;2023-04-24T06:05:54;9.50;;;7.88;;
12151;SDS011;6139;51.274;7.128;2023-04-24T06:06:57;7.60;;;6.90;;
12151;SDS011;6139;51.274;7.128;2023-04-24T06:07:58;8.60;;;7.68;;
12151;SDS011;6139;51.274;7.128;2023-04-24T06:09:06;8.35;;;6.90;;
12151;SDS011;6139;51.274;7.128;2023-04-24T06:10:08;8.68;;;7.78;;
12151;SDS011;6139;51.274;7.128;2023-04-24T06:11:15;8.95;;;7.57;;
12151;SDS011;6139;51.274;7.128;2023-04-24T06:12:17;11.47;;;7.63;;
12151;SDS011;6139;51.274;7.128;2023-04-24T06:13:26;11.43;;;7.78;;
12151;SDS011;6139;51.274;7.128;2023-04-24T06:14:51;11.70;;;7.10;;
12151;SDS011;6139;51.274;7.128;2023-04-24T06:15:57;9.80;;;8.57;;
12151;SDS011;6139;51.274;7.128;2023-04-24T06:17:08;9.65;;;8.52;;
12151;SDS011;6139;51.274;7.128;2023-04-24T06:18:13;10.82;;;7.75;;
12151;SDS011;6139;51.274;7.128;2023-04-24T06:19:15;9.53;;;8.23;;
12151;SDS011;6139;51.274;7.128;2023-04-24T06:20:17;10.33;;;8.57;;
12151;SDS011;6139;51.274;7.128;2023-04-24T06:21:19;10.02;;;8.50;;
12151;SDS011;6139;51.274;7.128;2023-04-24T06:22:21;9.73;;;8.57;;
12151;SDS011;6139;51.274;7.128;2023-04-24T06:23:22;10.73;;;9.30;;
12151;SDS011;6139;51.274;7.128;2023-04-24T06:24:26;9.38;;;8.43;;
12151;SDS011;6139;51.274;7.128;2023-04-24T06:25:27;10.40;;;8.10;;
12151;SDS011;6139;51.274;7.128;2023-04-24T06:26:29;11.13;;;7.93;;
12151;SDS011;6139;51.274;7.128;2023-04-24T06:27:30;9.18;;;8.27;;